Meath Environmental Platform

Observations

Time Sensor AQI SAQ Temp °C Hum % Pres Pa CO μg/m³ H₂S μg/m³ NO μg/m³ NO₂ μg/m³ O₃ μg/m³ SO₂ μg/m³ CO₂e PPM VOC PPM PM1 μg/m³ PM2.5 μg/m³ PM4 μg/m³ PM10 μg/m³ TPS µm
Tuesday 11 August 2026
23:53 Trim Patrick St 3 20.8 54 70,341 0 9.93 1.21 24.49 58.36 4.12 3.71 8.4 9.24
23:53 Trim Market St 2 21.6 53 56,222 0 0 1.25 19.62 59.65 0 0.71 2.82 3.9
23:52 Trim Patrick St 3 20.9 56 70,325 0 9.22 1.22 26.31 51.81 3.89 4.57 9.05 9.96
23:52 Trim Market St 2 21.6 53 56,193 0 0 1.25 12.25 44.29 0 0.71 3.33 5.35
23:51 Trim Patrick St 3 20.9 57 70,274 0 7.43 1.22 17.48 40.21 3.02 3.71 8.22 9.05
23:51 Trim Market St 2 21.6 53 56,174 0 0 1.28 39.2 61.66 0 0.71 3.33 3.9
23:50 Trim Patrick St 3 20.9 54 70,243 0 8.8 1.21 35.34 47.51 3.29 2.86 6.92 7.61
23:50 Trim Market St 2 21.6 53 56,101 0 0 1.29 19.23 57.64 0 1.43 3.85 4.62
23:49 Trim Patrick St 3 20.9 54 70,225 0 8.48 1.21 19.98 49.89 3.49 3.71 9.19 10.11
23:49 Trim Market St 2 21.6 53 56,077 0 0 1.28 19.85 63.07 0 0.71 3.85 4.62
23:48 Trim Patrick St 3 20.9 55 70,201 0 8.01 1.21 24.94 44.05 3.21 2.86 6.82 7.51
23:48 Trim Market St 2 21.6 53 56,065 0 0 1.27 16.92 57.67 0 1.43 3.86 4.62
23:47 Trim Patrick St 3 20.9 56 70,174 0 9.59 1.23 25.4 45.91 3.18 3.71 9.07 9.97
23:47 Trim Market St 2 21.6 53 56,041 0 0 1.25 19.49 58.89 0 1.43 3.35 3.89
23:46 Trim Patrick St 3 20.9 57 70,135 0 9.99 1.21 29.71 54.12 3.83 2 6.75 7.42
23:46 Trim Market St 2 21.6 53 56,029 0 0 1.24 17.84 58.28 0 0 2.33 2.43
23:45 Trim Patrick St 3 20.9 56 70,081 0 9.19 1.22 32.99 49.95 3.91 2.86 6.75 7.43
23:44 Trim Patrick St 3 20.9 56 70,037 0 8.98 1.22 21.39 45.83 3.48 2.86 7.57 8.33
23:43 Trim Patrick St 3 21 54 70,015 0 9.46 1.22 29.9 51.06 3.46 2.86 7.64 8.41
23:43 Trim Market St 2 21.6 53 55,985 0 0 1.27 23.11 61.78 0 0.71 3.35 3.88